createdAt,value
2022-12-28T00:00:23.661Z,5.40
2022-12-28T00:02:46.139Z,6.45
2022-12-28T00:05:09.126Z,6.43
2022-12-28T00:07:31.548Z,6.07
2022-12-28T00:09:53.880Z,7.38
2022-12-28T00:12:16.267Z,7.73
2022-12-28T00:14:38.690Z,7.00
2022-12-28T00:17:01.014Z,6.95
2022-12-28T00:19:23.464Z,7.55
2022-12-28T00:21:46.048Z,7.77
2022-12-28T00:24:08.823Z,8.25
2022-12-28T00:26:32.963Z,9.70
2022-12-28T00:28:59.919Z,7.45
2022-12-28T00:31:26.433Z,8.15
2022-12-28T00:33:48.845Z,8.45
2022-12-28T00:36:15.094Z,8.63
2022-12-28T00:38:40.420Z,7.75
2022-12-28T00:41:02.768Z,7.75
2022-12-28T00:43:25.389Z,8.52
2022-12-28T00:45:48.049Z,8.57
2022-12-28T00:48:10.440Z,7.85
2022-12-28T00:50:32.869Z,9.53
2022-12-28T00:52:55.333Z,9.00
2022-12-28T00:55:17.736Z,9.20
2022-12-28T00:57:41.192Z,8.63
2022-12-28T01:00:04.289Z,9.05
2022-12-28T01:04:48.914Z,8.18
2022-12-28T01:07:12.595Z,8.35
2022-12-28T01:09:34.956Z,8.05
2022-12-28T01:11:57.316Z,8.43
2022-12-28T01:14:19.672Z,8.98
2022-12-28T01:16:42.082Z,8.23
2022-12-28T01:19:06.699Z,8.15
2022-12-28T01:21:31.685Z,8.27
2022-12-28T01:24:00.917Z,8.70
2022-12-28T01:26:23.441Z,8.40
2022-12-28T01:28:45.793Z,7.80
2022-12-28T01:31:11.148Z,8.67
2022-12-28T01:33:33.649Z,8.60
2022-12-28T01:35:55.969Z,9.35
2022-12-28T01:38:18.310Z,8.57
2022-12-28T01:40:46.791Z,9.07
2022-12-28T01:43:29.663Z,9.00
2022-12-28T01:45:52.550Z,9.00
2022-12-28T01:48:20.578Z,8.32
2022-12-28T01:50:42.945Z,8.25
2022-12-28T01:53:09.812Z,8.93
2022-12-28T01:55:34.699Z,8.65
2022-12-28T01:58:02.526Z,9.10
2022-12-28T02:00:27.007Z,8.35
2022-12-28T02:03:03.381Z,8.38
2022-12-28T02:05:30.170Z,7.82
2022-12-28T02:08:22.811Z,8.75
2022-12-28T02:10:46.121Z,8.50
2022-12-28T02:13:09.132Z,9.27
2022-12-28T02:15:31.461Z,8.80
2022-12-28T02:17:53.780Z,8.53
2022-12-28T02:20:18.057Z,9.35
2022-12-28T02:23:13.057Z,10.07
2022-12-28T02:26:12.487Z,8.88
2022-12-28T02:28:59.476Z,8.50
2022-12-28T02:31:28.106Z,8.93
2022-12-28T02:34:12.248Z,10.07
2022-12-28T02:36:39.356Z,9.18
2022-12-28T02:39:15.700Z,9.25
2022-12-28T02:41:38.578Z,9.57
2022-12-28T02:44:07.549Z,9.63
2022-12-28T02:46:50.311Z,9.55
2022-12-28T02:49:45.919Z,9.77
2022-12-28T02:52:23.614Z,8.75
2022-12-28T02:55:48.100Z,9.30
2022-12-28T02:58:25.516Z,9.13
2022-12-28T03:01:19.419Z,9.63
2022-12-28T03:07:10.213Z,9.35
2022-12-28T03:10:07.467Z,10.10
2022-12-28T03:12:44.109Z,9.32
2022-12-28T03:15:35.178Z,9.38
2022-12-28T03:18:30.637Z,9.70
2022-12-28T03:21:11.773Z,10.32
2022-12-28T03:23:53.058Z,10.85
2022-12-28T03:26:34.066Z,10.30
2022-12-28T03:29:15.108Z,11.15
2022-12-28T03:31:37.433Z,10.65
2022-12-28T03:34:08.921Z,11.10
2022-12-28T03:36:45.128Z,11.32
2022-12-28T03:39:48.888Z,11.25
2022-12-28T03:42:59.705Z,11.35
2022-12-28T03:45:45.298Z,11.02
2022-12-28T03:48:09.699Z,11.35
2022-12-28T03:50:34.415Z,11.35
2022-12-28T03:52:58.803Z,12.77
2022-12-28T03:55:21.234Z,10.55
2022-12-28T03:57:43.577Z,10.63
2022-12-28T04:00:07.199Z,12.48
2022-12-28T04:02:29.786Z,10.98
2022-12-28T04:04:52.322Z,12.40
2022-12-28T04:07:14.635Z,11.50
2022-12-28T04:09:36.978Z,10.88
2022-12-28T04:11:59.401Z,10.95
2022-12-28T04:14:23.053Z,11.55
2022-12-28T04:16:45.468Z,9.93
2022-12-28T04:19:10.584Z,11.20
2022-12-28T04:21:32.906Z,10.50
2022-12-28T04:23:55.325Z,11.23
2022-12-28T04:26:18.124Z,9.73
2022-12-28T04:28:40.724Z,10.20
2022-12-28T04:31:03.486Z,10.15
2022-12-28T04:33:29.553Z,10.68
2022-12-28T04:35:52.001Z,10.95
2022-12-28T04:38:17.730Z,9.77
2022-12-28T04:40:45.604Z,10.13
2022-12-28T04:43:08.033Z,9.98
2022-12-28T04:45:30.556Z,9.77
2022-12-28T04:47:56.930Z,10.27
2022-12-28T04:50:19.261Z,10.30
2022-12-28T04:52:41.587Z,10.43
2022-12-28T04:55:04.214Z,10.13
2022-12-28T04:57:26.593Z,10.32
2022-12-28T04:59:49.005Z,10.27
2022-12-28T05:02:11.500Z,9.57
2022-12-28T05:04:33.917Z,9.63
2022-12-28T05:06:56.210Z,10.03
2022-12-28T05:09:19.548Z,9.83
2022-12-28T05:11:42.005Z,10.35
2022-12-28T05:14:04.350Z,9.63
2022-12-28T05:16:28.356Z,10.38
2022-12-28T05:18:50.769Z,9.48
2022-12-28T05:21:15.879Z,9.38
2022-12-28T05:23:38.899Z,9.13
2022-12-28T05:26:01.263Z,9.45
2022-12-28T05:28:24.440Z,9.02
2022-12-28T05:33:09.046Z,9.07
2022-12-28T05:35:31.376Z,9.10
2022-12-28T05:37:53.773Z,9.03
2022-12-28T05:39:56.646Z,9.15
2022-12-28T05:42:00.869Z,9.10
2022-12-28T05:44:03.497Z,8.75
2022-12-28T05:46:10.957Z,8.98
2022-12-28T05:48:13.643Z,9.18
2022-12-28T05:50:16.389Z,8.80
2022-12-28T05:52:19.101Z,9.65
2022-12-28T05:54:22.233Z,7.93
2022-12-28T05:56:27.652Z,9.18
2022-12-28T05:58:30.442Z,9.05
2022-12-28T06:00:33.178Z,9.18
2022-12-28T06:02:36.283Z,8.98
2022-12-28T06:04:57.288Z,7.47
2022-12-28T06:07:20.199Z,8.43
2022-12-28T06:09:42.572Z,7.90
2022-12-28T06:12:06.343Z,8.82
2022-12-28T06:14:28.891Z,8.05
2022-12-28T06:16:51.804Z,8.05
2022-12-28T06:19:25.423Z,8.10
2022-12-28T06:21:48.052Z,7.60
2022-12-28T06:24:07.101Z,8.20
2022-12-28T06:26:31.420Z,6.53
2022-12-28T06:28:55.207Z,7.88
2022-12-28T06:31:22.776Z,7.68
2022-12-28T06:33:45.842Z,7.68
2022-12-28T06:36:20.695Z,6.75
2022-12-28T06:38:43.219Z,7.22
2022-12-28T06:41:14.963Z,6.57
2022-12-28T06:43:38.411Z,7.28
2022-12-28T06:46:03.080Z,7.53
2022-12-28T06:48:27.288Z,7.68
2022-12-28T06:51:00.040Z,7.63
2022-12-28T06:56:36.315Z,6.75
2022-12-28T06:59:03.444Z,7.32
2022-12-28T07:01:35.360Z,6.97
2022-12-28T07:03:59.275Z,6.55
2022-12-28T07:06:24.073Z,6.32
2022-12-28T07:08:47.769Z,6.85
2022-12-28T07:11:15.335Z,6.68
2022-12-28T07:13:37.682Z,6.13
2022-12-28T07:16:13.026Z,6.37
2022-12-28T07:18:35.479Z,6.63
2022-12-28T07:21:06.685Z,6.10
2022-12-28T07:23:31.519Z,6.28
2022-12-28T07:25:53.955Z,5.93
2022-12-28T07:28:16.294Z,6.45
2022-12-28T07:30:38.722Z,6.03
2022-12-28T07:33:01.149Z,6.45
2022-12-28T07:35:23.504Z,5.95
2022-12-28T07:37:46.409Z,5.85
2022-12-28T07:40:09.767Z,6.70
2022-12-28T07:42:32.129Z,6.68
2022-12-28T07:44:54.503Z,6.83
2022-12-28T07:47:16.838Z,7.72
2022-12-28T07:49:39.236Z,7.47
2022-12-28T07:52:01.602Z,7.32
2022-12-28T07:54:23.964Z,6.70
2022-12-28T07:56:27.204Z,7.43
2022-12-28T07:58:29.248Z,7.53
2022-12-28T08:00:31.539Z,6.82
2022-12-28T08:02:33.780Z,7.30
2022-12-28T08:04:35.899Z,8.13
2022-12-28T08:06:40.239Z,6.70
2022-12-28T08:08:44.856Z,8.18
2022-12-28T08:10:47.670Z,8.13
2022-12-28T08:12:51.255Z,8.13
2022-12-28T08:14:53.966Z,7.40
2022-12-28T08:16:57.481Z,8.15
2022-12-28T08:18:59.971Z,7.72
2022-12-28T08:21:07.407Z,7.65
2022-12-28T08:23:10.993Z,7.78
2022-12-28T08:25:13.849Z,9.40
2022-12-28T08:27:16.267Z,7.90
2022-12-28T08:29:21.290Z,8.15
2022-12-28T08:31:33.079Z,9.40
2022-12-28T08:33:36.995Z,7.68
2022-12-28T08:35:39.334Z,8.63
2022-12-28T08:37:41.702Z,8.60
2022-12-28T08:42:05.171Z,7.97
2022-12-28T08:44:25.972Z,8.02
2022-12-28T08:46:48.518Z,8.27
2022-12-28T08:49:11.378Z,8.32
2022-12-28T08:51:42.348Z,8.02
2022-12-28T08:54:04.956Z,7.75
2022-12-28T08:56:32.918Z,8.35
2022-12-28T08:58:55.762Z,8.63
2022-12-28T09:01:21.604Z,7.60
2022-12-28T09:03:45.991Z,9.15
2022-12-28T09:06:13.743Z,7.95
2022-12-28T09:08:36.325Z,8.30
2022-12-28T09:11:03.705Z,8.85
2022-12-28T09:13:26.075Z,8.43
2022-12-28T09:16:07.066Z,7.95
2022-12-28T09:18:29.582Z,7.82
2022-12-28T09:20:52.139Z,8.40
2022-12-28T09:23:14.757Z,7.93
2022-12-28T09:25:37.135Z,8.68
2022-12-28T09:27:59.782Z,8.68
2022-12-28T09:30:22.191Z,9.82
2022-12-28T09:32:44.591Z,8.57
2022-12-28T09:35:07.818Z,7.18
2022-12-28T09:39:54.553Z,7.75
2022-12-28T09:42:24.037Z,6.97
2022-12-28T09:45:19.836Z,7.45
2022-12-28T09:47:49.869Z,7.15
2022-12-28T09:50:24.872Z,8.95
2022-12-28T09:53:06.842Z,7.05
2022-12-28T09:55:29.256Z,7.13
2022-12-28T09:57:54.788Z,7.32
2022-12-28T10:00:26.210Z,7.65
2022-12-28T10:03:00.380Z,7.90
2022-12-28T10:05:22.873Z,8.07
2022-12-28T10:07:45.274Z,7.13
2022-12-28T10:10:07.968Z,6.70
2022-12-28T10:12:30.567Z,7.32
2022-12-28T10:14:53.658Z,7.93
2022-12-28T10:17:17.360Z,7.07
2022-12-28T10:19:39.707Z,7.68
2022-12-28T10:22:07.546Z,7.65
2022-12-28T10:24:31.873Z,6.93
2022-12-28T10:26:56.176Z,7.20
2022-12-28T10:29:21.886Z,8.20
2022-12-28T10:31:43.612Z,7.80
2022-12-28T10:33:51.931Z,7.03
2022-12-28T10:35:55.351Z,8.30
2022-12-28T10:38:20.960Z,8.73
2022-12-28T10:40:27.341Z,7.88
2022-12-28T10:42:41.402Z,7.88
2022-12-28T10:44:44.169Z,8.07
2022-12-28T10:47:07.569Z,8.05
2022-12-28T10:49:15.652Z,7.97
2022-12-28T10:51:20.630Z,8.88
2022-12-28T10:53:44.051Z,8.00
2022-12-28T10:55:47.070Z,9.82
2022-12-28T10:58:27.533Z,9.63
2022-12-28T11:00:26.137Z,10.05
2022-12-28T11:02:30.087Z,11.77
2022-12-28T11:04:33.371Z,11.68
2022-12-28T11:07:02.940Z,14.55
2022-12-28T11:09:15.771Z,14.32
2022-12-28T11:11:23.049Z,11.30
2022-12-28T11:13:27.392Z,8.63
2022-12-28T11:15:32.219Z,9.02
2022-12-28T11:17:36.713Z,9.32
2022-12-28T11:19:39.358Z,8.05
2022-12-28T11:21:42.630Z,8.27
2022-12-28T11:23:48.219Z,7.43
2022-12-28T11:25:50.550Z,8.45
2022-12-28T11:27:54.114Z,9.10
2022-12-28T11:29:57.604Z,7.97
2022-12-28T11:32:07.884Z,7.18
2022-12-28T11:34:21.250Z,8.50
2022-12-28T11:36:38.887Z,7.35
2022-12-28T11:38:44.116Z,7.20
2022-12-28T11:40:50.633Z,7.32
2022-12-28T11:42:55.672Z,7.65
2022-12-28T11:47:26.439Z,6.93
2022-12-28T11:49:35.835Z,8.15
2022-12-28T11:51:38.205Z,8.63
2022-12-28T11:53:47.107Z,7.32
2022-12-28T11:56:08.418Z,7.70
2022-12-28T11:58:30.110Z,7.47
2022-12-28T12:00:48.043Z,7.50
2022-12-28T12:02:52.367Z,7.45
2022-12-28T12:04:55.453Z,7.15
2022-12-28T12:07:01.532Z,8.00
2022-12-28T12:09:04.430Z,9.18
2022-12-28T12:11:30.969Z,9.10
2022-12-28T12:13:43.298Z,9.75
2022-12-28T12:15:45.869Z,7.75
2022-12-28T12:20:14.662Z,7.53
2022-12-28T12:22:44.146Z,8.82
2022-12-28T12:25:08.168Z,9.07
2022-12-28T12:27:41.803Z,7.30
2022-12-28T12:29:53.087Z,8.07
2022-12-28T12:32:06.501Z,8.43
2022-12-28T12:34:25.857Z,7.70
2022-12-28T12:36:49.589Z,6.72
2022-12-28T12:41:49.350Z,7.13
2022-12-28T12:44:12.231Z,7.38
2022-12-28T12:46:29.990Z,7.05
2022-12-28T12:49:15.652Z,7.70
2022-12-28T12:51:46.460Z,6.80
2022-12-28T12:54:07.441Z,7.90
2022-12-28T12:56:38.232Z,7.85
2022-12-28T12:58:54.719Z,8.73
2022-12-28T13:01:15.332Z,6.63
2022-12-28T13:03:38.685Z,7.05
2022-12-28T13:05:46.513Z,7.45
2022-12-28T13:07:49.666Z,7.85
2022-12-28T13:09:54.462Z,7.82
2022-12-28T13:11:57.516Z,7.97
2022-12-28T13:14:00.145Z,7.47
2022-12-28T13:16:05.511Z,7.57
2022-12-28T13:21:01.074Z,7.45
2022-12-28T13:23:03.142Z,7.90
2022-12-28T13:25:06.534Z,7.53
2022-12-28T13:27:19.851Z,7.43
2022-12-28T13:29:25.803Z,8.77
2022-12-28T13:31:33.779Z,7.78
2022-12-28T13:33:35.937Z,8.05
2022-12-28T13:35:38.298Z,8.00
2022-12-28T13:39:43.239Z,7.57
2022-12-28T13:42:25.187Z,8.05
2022-12-28T13:44:39.399Z,8.32
2022-12-28T13:46:44.691Z,7.47
2022-12-28T13:48:49.772Z,8.00
2022-12-28T13:50:53.535Z,6.85
2022-12-28T13:53:05.188Z,8.25
2022-12-28T13:55:15.116Z,8.75
2022-12-28T13:57:45.818Z,8.55
2022-12-28T13:59:41.071Z,8.10
2022-12-28T14:01:45.079Z,8.35
2022-12-28T14:03:50.281Z,8.13
2022-12-28T14:05:59.993Z,8.07
2022-12-28T14:08:02.689Z,7.38
2022-12-28T14:10:05.447Z,7.15
2022-12-28T14:12:08.057Z,6.82
2022-12-28T14:14:10.915Z,6.93
2022-12-28T14:16:14.477Z,7.55
2022-12-28T14:18:17.303Z,7.38
2022-12-28T14:20:20.024Z,7.57
2022-12-28T14:22:33.369Z,7.93
2022-12-28T14:24:35.942Z,7.57
2022-12-28T14:26:44.625Z,8.15
2022-12-28T14:28:54.714Z,7.65
2022-12-28T14:30:57.714Z,7.78
2022-12-28T14:33:15.329Z,7.07
2022-12-28T14:35:25.097Z,8.30
2022-12-28T14:37:35.566Z,7.95
2022-12-28T14:39:41.073Z,7.80
2022-12-28T14:41:45.830Z,8.88
2022-12-28T14:43:57.120Z,7.75
2022-12-28T14:46:25.941Z,7.38
2022-12-28T14:48:40.436Z,7.75
2022-12-28T14:50:59.656Z,8.00
2022-12-28T14:53:11.438Z,6.88
2022-12-28T14:55:21.585Z,6.43
2022-12-28T14:57:32.655Z,7.35
2022-12-28T14:59:39.371Z,7.97
2022-12-28T15:01:44.768Z,8.88
2022-12-28T15:03:58.586Z,9.82
2022-12-28T15:06:02.639Z,9.70
2022-12-28T15:08:05.469Z,9.07
2022-12-28T15:10:09.583Z,10.15
2022-12-28T15:12:16.126Z,8.70
2022-12-28T15:14:22.078Z,8.23
2022-12-28T15:16:24.830Z,8.40
2022-12-28T15:18:29.390Z,8.07
2022-12-28T15:20:32.312Z,6.75
2022-12-28T15:22:34.951Z,7.25
2022-12-28T15:24:38.925Z,7.22
2022-12-28T15:26:41.802Z,7.05
2022-12-28T15:28:44.072Z,6.88
2022-12-28T15:30:46.476Z,6.55
2022-12-28T15:32:49.873Z,6.07
2022-12-28T15:34:56.896Z,6.70
2022-12-28T15:36:59.014Z,7.78
2022-12-28T15:39:02.649Z,7.25
2022-12-28T15:41:25.950Z,6.85
2022-12-28T15:43:28.105Z,6.47
2022-12-28T15:47:35.822Z,6.57
2022-12-28T15:49:39.140Z,7.13
2022-12-28T15:51:42.823Z,6.25
2022-12-28T15:53:45.430Z,7.10
2022-12-28T15:56:00.656Z,6.15
2022-12-28T15:58:04.467Z,6.63
2022-12-28T16:00:09.536Z,6.72
2022-12-28T16:02:12.451Z,6.88
2022-12-28T16:04:15.158Z,7.03
2022-12-28T16:06:19.141Z,6.10
2022-12-28T16:08:22.782Z,6.47
2022-12-28T16:10:25.630Z,7.22
2022-12-28T16:12:28.458Z,6.93
2022-12-28T16:14:30.864Z,7.20
2022-12-28T16:16:39.104Z,7.53
2022-12-28T16:18:42.411Z,6.93
2022-12-28T16:20:48.167Z,6.60
2022-12-28T16:22:50.212Z,8.52
2022-12-28T16:24:52.494Z,8.13
2022-12-28T16:26:54.757Z,9.15
2022-12-28T16:28:59.519Z,8.18
2022-12-28T16:31:02.404Z,8.15
2022-12-28T16:33:04.911Z,8.55
2022-12-28T16:35:09.708Z,8.57
2022-12-28T16:37:12.178Z,8.10
2022-12-28T16:39:16.866Z,8.15
2022-12-28T16:41:19.634Z,8.35
2022-12-28T16:43:22.114Z,8.55
2022-12-28T16:45:24.893Z,8.38
2022-12-28T16:47:27.863Z,8.63
2022-12-28T16:49:30.653Z,8.95
2022-12-28T16:51:32.719Z,8.75
2022-12-28T16:53:36.819Z,8.38
2022-12-28T16:55:41.209Z,9.20
2022-12-28T16:57:43.607Z,9.15
2022-12-28T17:00:04.542Z,10.10
2022-12-28T17:02:25.146Z,12.98
2022-12-28T17:04:47.709Z,12.57
2022-12-28T17:07:10.116Z,8.55
2022-12-28T17:09:32.599Z,10.15
2022-12-28T17:11:54.995Z,10.05
2022-12-28T17:14:29.135Z,11.50
2022-12-28T17:16:59.774Z,10.15
2022-12-28T17:19:22.646Z,9.88
2022-12-28T17:21:45.031Z,8.90
2022-12-28T17:24:07.562Z,8.87
2022-12-28T17:26:30.107Z,9.60
2022-12-28T17:28:52.488Z,8.20
2022-12-28T17:31:18.590Z,9.40
2022-12-28T17:33:49.230Z,9.00
2022-12-28T17:36:11.647Z,8.20
2022-12-28T17:38:33.984Z,8.60
2022-12-28T17:40:56.479Z,9.37
2022-12-28T17:43:18.863Z,9.63
2022-12-28T17:45:44.041Z,9.45
2022-12-28T17:48:06.603Z,8.90
2022-12-28T17:50:28.965Z,9.50
2022-12-28T17:52:51.381Z,8.90
2022-12-28T17:55:13.744Z,8.70
2022-12-28T17:57:38.744Z,9.80
2022-12-28T18:00:01.399Z,10.05
2022-12-28T18:02:24.066Z,9.98
2022-12-28T18:04:48.214Z,9.05
2022-12-28T18:07:10.576Z,9.23
2022-12-28T18:09:32.980Z,8.40
2022-12-28T18:11:55.835Z,10.57
2022-12-28T18:14:18.211Z,8.27
2022-12-28T18:16:40.728Z,9.25
2022-12-28T18:19:03.156Z,10.05
2022-12-28T18:21:25.511Z,15.50
2022-12-28T18:23:48.291Z,10.43
2022-12-28T18:26:14.095Z,10.43
2022-12-28T18:28:36.887Z,10.57
2022-12-28T18:31:02.341Z,10.45
2022-12-28T18:33:25.014Z,9.45
2022-12-28T18:35:47.359Z,9.57
2022-12-28T18:38:09.717Z,9.30
2022-12-28T18:40:32.160Z,9.82
2022-12-28T18:42:54.517Z,10.13
2022-12-28T18:45:17.000Z,11.87
2022-12-28T18:47:39.433Z,9.93
2022-12-28T18:50:02.290Z,11.10
2022-12-28T18:52:24.703Z,13.38
2022-12-28T18:54:47.026Z,11.93
2022-12-28T18:57:09.714Z,12.83
2022-12-28T18:59:32.175Z,12.18
2022-12-28T19:02:13.155Z,14.05
2022-12-28T19:04:37.229Z,12.65
2022-12-28T19:06:59.760Z,11.45
2022-12-28T19:09:22.133Z,12.25
2022-12-28T19:11:45.247Z,12.23
2022-12-28T19:14:08.922Z,11.00
2022-12-28T19:16:32.214Z,10.75
2022-12-28T19:18:55.131Z,9.85
2022-12-28T19:21:40.463Z,9.90
2022-12-28T19:24:05.279Z,11.65
2022-12-28T19:26:27.648Z,11.73
2022-12-28T19:28:50.320Z,9.63
2022-12-28T19:31:12.810Z,10.38
2022-12-28T19:33:35.240Z,9.68
2022-12-28T19:35:57.551Z,9.90
2022-12-28T19:38:19.896Z,9.37
2022-12-28T19:40:42.231Z,10.03
2022-12-28T19:43:04.639Z,9.85
2022-12-28T19:45:26.983Z,10.00
2022-12-28T19:47:49.379Z,10.50
2022-12-28T19:50:11.792Z,9.20
2022-12-28T19:52:34.948Z,8.90
2022-12-28T19:54:57.279Z,10.30
2022-12-28T19:57:19.671Z,10.97
2022-12-28T19:59:42.052Z,9.63
2022-12-28T20:02:04.562Z,12.33
2022-12-28T20:04:27.195Z,11.50
2022-12-28T20:06:49.709Z,10.23
2022-12-28T20:09:13.323Z,10.75
2022-12-28T20:11:36.052Z,12.68
2022-12-28T20:14:01.105Z,12.23
2022-12-28T20:16:24.077Z,12.93
2022-12-28T20:18:51.000Z,12.65
2022-12-28T20:21:21.636Z,11.75
2022-12-28T20:23:44.446Z,11.52
2022-12-28T20:26:06.903Z,10.10
2022-12-28T20:28:29.333Z,10.93
2022-12-28T20:30:51.678Z,8.85
2022-12-28T20:33:15.341Z,9.83
2022-12-28T20:35:37.699Z,8.32
2022-12-28T20:38:00.078Z,9.30
2022-12-28T20:40:22.475Z,13.33
2022-12-28T20:43:03.542Z,11.33
2022-12-28T20:45:25.868Z,11.60
2022-12-28T20:47:48.257Z,9.07
2022-12-28T20:50:10.618Z,7.97
2022-12-28T20:52:32.985Z,9.37
2022-12-28T20:54:55.362Z,9.90
2022-12-28T20:57:17.710Z,7.90
2022-12-28T20:59:40.078Z,8.93
2022-12-28T21:02:02.650Z,7.60
2022-12-28T21:04:26.019Z,8.35
2022-12-28T21:06:48.616Z,9.23
2022-12-28T21:09:11.057Z,9.50
2022-12-28T21:11:33.545Z,10.25
2022-12-28T21:13:55.923Z,10.45
2022-12-28T21:16:18.470Z,11.13
2022-12-28T21:18:41.616Z,10.68
2022-12-28T21:21:04.249Z,14.50
2022-12-28T21:23:28.060Z,14.93
2022-12-28T21:25:50.509Z,10.82
2022-12-28T21:28:12.930Z,10.07
2022-12-28T21:30:35.328Z,13.17
2022-12-28T21:32:57.723Z,10.00
2022-12-28T21:35:20.148Z,11.68
2022-12-28T21:37:42.593Z,11.35
2022-12-28T21:40:07.831Z,10.38
2022-12-28T21:42:30.179Z,10.57
2022-12-28T21:44:52.554Z,9.33
2022-12-28T21:47:14.915Z,10.90
2022-12-28T21:49:37.318Z,10.50
2022-12-28T21:52:01.795Z,8.43
2022-12-28T21:54:24.223Z,9.27
2022-12-28T21:56:52.948Z,8.82
2022-12-28T21:59:15.535Z,10.30
2022-12-28T22:01:56.697Z,13.88
2022-12-28T22:04:38.242Z,12.27
2022-12-28T22:07:00.994Z,11.63
2022-12-28T22:09:42.108Z,8.73
2022-12-28T22:12:23.410Z,9.13
2022-12-28T22:14:45.786Z,10.30
2022-12-28T22:17:13.871Z,9.90
2022-12-28T22:19:36.723Z,10.38
2022-12-28T22:21:59.092Z,10.57
2022-12-28T22:24:21.441Z,9.07
2022-12-28T22:26:43.786Z,9.07
2022-12-28T22:29:06.223Z,9.43
2022-12-28T22:31:28.659Z,10.38
2022-12-28T22:33:53.249Z,10.25
2022-12-28T22:36:18.676Z,9.13
2022-12-28T22:38:41.063Z,7.93
2022-12-28T22:41:03.452Z,9.05
2022-12-28T22:43:25.815Z,8.60
2022-12-28T22:45:48.206Z,8.80
2022-12-28T22:48:10.569Z,10.23
2022-12-28T22:50:35.798Z,9.03
2022-12-28T22:53:02.099Z,9.88
2022-12-28T22:55:24.428Z,9.32
2022-12-28T22:57:46.770Z,8.67
2022-12-28T23:00:17.990Z,9.83
2022-12-28T23:02:40.692Z,9.40
2022-12-28T23:05:03.995Z,9.15
2022-12-28T23:07:26.491Z,9.88
2022-12-28T23:09:48.817Z,9.63
2022-12-28T23:12:11.194Z,9.73
2022-12-28T23:14:52.447Z,8.67
2022-12-28T23:17:15.720Z,7.75
2022-12-28T23:22:41.062Z,7.68
2022-12-28T23:25:22.128Z,6.70
2022-12-28T23:27:45.072Z,8.20
2022-12-28T23:30:10.798Z,7.63
2022-12-28T23:32:33.297Z,8.18
2022-12-28T23:34:55.650Z,7.82
2022-12-28T23:37:18.461Z,8.17
2022-12-28T23:39:40.811Z,8.70
2022-12-28T23:42:03.183Z,8.50
2022-12-28T23:44:26.337Z,8.87
2022-12-28T23:46:53.832Z,8.10
2022-12-28T23:49:19.513Z,8.88
2022-12-28T23:51:42.645Z,8.95
2022-12-28T23:54:05.027Z,10.05
2022-12-28T23:56:27.398Z,9.30
2022-12-28T23:58:50.190Z,8.90
